createdAt,value
2019-06-20T00:01:49.565Z,17.10
2019-06-20T00:06:53.920Z,17.00
2019-06-20T00:11:58.467Z,16.90
2019-06-20T00:17:03.010Z,16.90
2019-06-20T00:22:04.510Z,16.90
2019-06-20T00:27:11.592Z,17.00
2019-06-20T00:32:13.884Z,17.10
2019-06-20T00:37:19.365Z,17.20
2019-06-20T00:42:21.866Z,17.20
2019-06-20T00:47:23.112Z,17.30
2019-06-20T00:52:26.642Z,17.20
2019-06-20T00:57:31.051Z,17.20
2019-06-20T01:02:35.394Z,17.10
2019-06-20T01:07:39.855Z,17.10
2019-06-20T01:12:41.368Z,17.00
2019-06-20T01:18:16.748Z,17.00
2019-06-20T01:23:25.109Z,16.90
2019-06-20T01:28:26.356Z,16.80
2019-06-20T01:33:33.593Z,16.70
2019-06-20T01:38:38.161Z,16.60
2019-06-20T01:44:00.972Z,16.50
2019-06-20T01:49:08.285Z,16.40
2019-06-20T01:54:12.935Z,16.30
2019-06-20T01:59:14.088Z,16.20
2019-06-20T02:04:29.712Z,16.10
2019-06-20T02:09:34.249Z,16.00
2019-06-20T02:14:55.744Z,15.90
2019-06-20T02:19:57.178Z,15.90
2019-06-20T02:25:04.002Z,15.80
2019-06-20T02:30:38.988Z,15.70
2019-06-20T02:35:48.647Z,15.60
2019-06-20T02:40:49.918Z,15.50
2019-06-20T02:46:01.421Z,15.40
2019-06-20T02:51:02.992Z,15.40
2019-06-20T02:56:33.015Z,15.40
2019-06-20T03:01:34.299Z,15.30
2019-06-20T03:06:42.115Z,15.30
2019-06-20T03:11:45.535Z,15.30
2019-06-20T03:16:47.947Z,15.30
2019-06-20T03:22:03.632Z,15.30
2019-06-20T03:27:05.113Z,15.20
2019-06-20T03:32:06.481Z,15.20
2019-06-20T03:37:14.090Z,15.10
2019-06-20T03:42:15.580Z,15.10
2019-06-20T03:47:32.096Z,15.10
2019-06-20T03:52:44.612Z,15.10
2019-06-20T03:57:46.998Z,15.20
2019-06-20T04:02:48.290Z,15.40
2019-06-20T04:07:52.728Z,15.60
2019-06-20T04:12:57.260Z,15.70
2019-06-20T04:18:04.637Z,15.70
2019-06-20T04:23:06.028Z,15.60
2019-06-20T04:28:10.691Z,15.60
2019-06-20T04:33:17.784Z,15.70
2019-06-20T04:38:19.041Z,15.80
2019-06-20T04:43:23.592Z,15.90
2019-06-20T04:48:28.152Z,15.90
2019-06-20T04:53:35.262Z,16.00
2019-06-20T04:58:52.953Z,16.10
2019-06-20T05:03:58.124Z,16.30
2019-06-20T05:08:59.531Z,16.60
2019-06-20T05:14:00.805Z,16.70
2019-06-20T05:19:02.155Z,16.90
2019-06-20T05:24:06.749Z,16.90
2019-06-20T05:29:10.029Z,16.90
2019-06-20T05:34:14.554Z,16.90
2019-06-20T05:39:39.543Z,16.90
2019-06-20T05:44:46.822Z,16.80
2019-06-20T05:49:50.313Z,16.70
2019-06-20T05:55:13.341Z,16.80
2019-06-20T06:00:16.521Z,17.10
2019-06-20T06:05:48.968Z,17.00
2019-06-20T06:10:53.433Z,17.10
2019-06-20T06:15:54.800Z,17.10
2019-06-20T06:20:59.403Z,17.20
2019-06-20T06:26:03.888Z,17.30
2019-06-20T06:31:05.178Z,17.20
2019-06-20T06:36:13.586Z,17.30
2019-06-20T06:41:18.184Z,17.20
2019-06-20T06:46:19.595Z,17.20
2019-06-20T06:51:28.025Z,17.20
2019-06-20T06:56:29.332Z,17.20
2019-06-20T07:01:36.570Z,17.10
2019-06-20T07:06:37.863Z,17.10
2019-06-20T07:11:48.247Z,17.30
2019-06-20T07:16:59.753Z,17.50
2019-06-20T07:22:02.906Z,17.80
2019-06-20T07:27:22.664Z,17.90
2019-06-20T07:32:36.577Z,18.10
2019-06-20T07:37:48.133Z,18.60
2019-06-20T07:43:01.549Z,19.10
2019-06-20T07:48:03.156Z,19.50
2019-06-20T07:53:13.635Z,20.00
2019-06-20T07:58:18.570Z,20.30
2019-06-20T08:03:28.908Z,20.50
2019-06-20T08:08:33.384Z,20.80
2019-06-20T08:13:35.808Z,21.00
2019-06-20T08:18:40.340Z,20.90
2019-06-20T08:23:43.703Z,20.70
2019-06-20T08:28:48.226Z,20.50
2019-06-20T08:33:52.974Z,20.80
2019-06-20T08:39:07.222Z,20.80
2019-06-20T08:44:11.740Z,20.80
2019-06-20T08:49:13.192Z,20.80
2019-06-20T08:54:17.689Z,20.80
2019-06-20T08:59:24.814Z,21.20
2019-06-20T09:04:24.916Z,21.50
2019-06-20T09:09:32.069Z,21.90
2019-06-20T09:14:42.615Z,22.40
2019-06-20T09:19:44.106Z,22.60
2019-06-20T09:24:56.812Z,22.80
2019-06-20T09:30:00.541Z,23.00
2019-06-20T09:35:09.606Z,23.10
2019-06-20T09:40:14.486Z,22.80
2019-06-20T09:45:19.501Z,22.70
2019-06-20T09:50:35.290Z,22.80
2019-06-20T09:55:42.374Z,23.40
2019-06-20T10:00:47.650Z,24.30
2019-06-20T10:05:52.506Z,25.30
2019-06-20T10:10:54.146Z,25.90
2019-06-20T10:15:58.958Z,26.30
2019-06-20T10:26:51.849Z,25.60
2019-06-20T10:31:59.028Z,25.00
2019-06-20T10:37:03.521Z,24.30
2019-06-20T10:42:11.292Z,23.70
2019-06-20T10:47:13.772Z,22.90
2019-06-20T10:52:16.443Z,22.60
2019-06-20T10:57:46.740Z,22.80
2019-06-20T11:03:00.423Z,22.80
2019-06-20T11:08:07.693Z,22.90
2019-06-20T11:13:11.616Z,23.40
2019-06-20T11:18:14.065Z,24.20
2019-06-20T11:23:18.534Z,26.00
2019-06-20T11:28:19.842Z,26.70
2019-06-20T11:33:21.140Z,26.30
2019-06-20T11:38:26.227Z,26.50
2019-06-20T11:43:30.825Z,25.70
2019-06-20T11:48:50.409Z,25.50
2019-06-20T11:54:10.261Z,25.90
2019-06-20T11:59:20.684Z,25.90
2019-06-20T12:04:23.105Z,26.40
2019-06-20T12:09:25.489Z,27.20
2019-06-20T12:14:44.329Z,27.40
2019-06-20T12:19:54.792Z,27.50
2019-06-20T12:24:59.407Z,28.40
2019-06-20T12:30:14.744Z,28.80
2019-06-20T12:35:19.608Z,26.70
2019-06-20T12:40:22.975Z,25.50
2019-06-20T12:45:34.386Z,26.30
2019-06-20T12:50:42.945Z,27.70
2019-06-20T12:55:58.537Z,28.30
2019-06-20T13:01:01.964Z,28.30
2019-06-20T13:06:03.403Z,28.60
2019-06-20T13:11:07.855Z,27.90
2019-06-20T13:16:15.180Z,26.90
2019-06-20T13:21:18.958Z,25.80
2019-06-20T13:26:25.476Z,25.00
2019-06-20T13:31:31.293Z,25.10
2019-06-20T13:37:10.044Z,25.00
2019-06-20T13:42:11.343Z,24.50
2019-06-20T13:47:20.014Z,24.50
2019-06-20T13:52:24.427Z,24.50
2019-06-20T13:57:29.940Z,24.10
2019-06-20T14:02:31.153Z,24.00
2019-06-20T14:07:43.787Z,24.00
2019-06-20T14:12:54.579Z,23.90
2019-06-20T14:18:04.456Z,24.60
2019-06-20T14:23:11.499Z,26.00
2019-06-20T14:28:15.882Z,25.20
2019-06-20T14:33:19.312Z,24.60
2019-06-20T14:38:23.742Z,24.90
2019-06-20T14:43:27.059Z,24.60
2019-06-20T14:48:30.390Z,23.70
2019-06-20T14:53:54.582Z,23.40
2019-06-20T14:59:01.786Z,23.20
2019-06-20T15:04:09.217Z,23.30
2019-06-20T15:09:29.554Z,23.10
2019-06-20T15:14:30.836Z,23.50
2019-06-20T15:19:34.173Z,24.40
2019-06-20T15:24:35.647Z,24.80
2019-06-20T15:29:40.429Z,25.60
2019-06-20T15:34:41.684Z,25.70
2019-06-20T15:39:50.279Z,26.10
2019-06-20T15:44:54.135Z,24.90
2019-06-20T15:50:08.015Z,24.10
2019-06-20T15:55:09.498Z,23.50
2019-06-20T16:00:13.766Z,23.80
2019-06-20T16:05:41.813Z,23.80
2019-06-20T16:10:46.425Z,24.10
2019-06-20T16:15:53.545Z,25.60
2019-06-20T16:21:36.644Z,25.50
2019-06-20T16:26:38.021Z,24.80
2019-06-20T16:31:57.623Z,23.50
2019-06-20T16:37:09.627Z,23.20
2019-06-20T16:42:08.469Z,23.50
2019-06-20T16:47:47.030Z,23.50
2019-06-20T16:52:54.341Z,23.00
2019-06-20T16:57:58.742Z,22.80
2019-06-20T17:03:04.168Z,22.80
2019-06-20T17:08:08.727Z,22.70
2019-06-20T17:13:11.236Z,22.50
2019-06-20T17:18:15.730Z,22.50
2019-06-20T17:23:30.467Z,22.70
2019-06-20T17:28:33.057Z,22.70
2019-06-20T17:33:37.618Z,22.50
2019-06-20T17:38:57.166Z,22.30
2019-06-20T17:44:01.715Z,22.00
2019-06-20T17:49:03.320Z,22.20
2019-06-20T17:54:04.591Z,21.90
2019-06-20T17:59:11.741Z,21.50
2019-06-20T18:04:16.252Z,21.60
2019-06-20T18:09:29.236Z,21.60
2019-06-20T18:14:39.507Z,21.50
2019-06-20T18:19:40.907Z,21.50
2019-06-20T18:24:42.276Z,21.30
2019-06-20T18:29:46.768Z,21.00
2019-06-20T18:35:01.489Z,20.90
2019-06-20T18:39:57.549Z,20.80
2019-06-20T18:45:11.999Z,20.70
2019-06-20T18:50:19.502Z,20.50
2019-06-20T18:55:22.055Z,20.40
2019-06-20T19:00:34.518Z,20.20
2019-06-20T19:05:46.984Z,19.90
2019-06-20T19:11:08.288Z,19.50
2019-06-20T19:16:09.600Z,19.30
2019-06-20T19:21:16.721Z,19.10
2019-06-20T19:26:17.994Z,18.80
2019-06-20T19:31:21.384Z,18.50
2019-06-20T19:36:22.661Z,18.30
2019-06-20T19:41:26.190Z,18.10
2019-06-20T19:46:30.817Z,17.80
2019-06-20T19:51:49.394Z,17.60
2019-06-20T19:56:56.571Z,17.40
2019-06-20T20:01:57.852Z,17.30
2019-06-20T20:07:30.222Z,17.10
2019-06-20T20:12:34.906Z,17.00
2019-06-20T20:18:04.294Z,16.80
2019-06-20T20:23:05.589Z,16.60
2019-06-20T20:28:09.098Z,16.50
2019-06-20T20:33:16.405Z,16.40
2019-06-20T20:38:20.960Z,16.30
2019-06-20T20:43:28.246Z,16.10
2019-06-20T20:48:32.811Z,16.00
2019-06-20T20:53:37.338Z,15.90
2019-06-20T20:58:45.466Z,15.80
2019-06-20T21:03:52.600Z,15.80
2019-06-20T21:09:16.017Z,15.70
2019-06-20T21:14:23.202Z,15.60
2019-06-20T21:19:28.635Z,15.60
2019-06-20T21:24:33.229Z,15.50
2019-06-20T21:29:35.586Z,15.40
2019-06-20T21:34:43.165Z,15.40
2019-06-20T21:39:47.703Z,15.30
2019-06-20T21:44:49.011Z,15.30
2019-06-20T21:49:53.455Z,15.10
2019-06-20T21:54:54.893Z,15.00
2019-06-20T22:00:13.546Z,15.00
2019-06-20T22:05:17.359Z,14.90
2019-06-20T22:10:22.353Z,14.80
2019-06-20T22:15:23.717Z,14.80
2019-06-20T22:20:28.498Z,14.70
2019-06-20T22:25:30.045Z,14.60
2019-06-20T22:30:49.069Z,14.50
2019-06-20T22:36:03.809Z,14.30
2019-06-20T22:41:08.347Z,14.30
2019-06-20T22:46:09.820Z,14.40
2019-06-20T22:51:14.362Z,14.40
2019-06-20T22:56:18.985Z,14.40
2019-06-20T23:01:20.362Z,14.30
2019-06-20T23:06:23.698Z,14.20
2019-06-20T23:11:38.119Z,14.10
2019-06-20T23:16:42.609Z,13.90
2019-06-20T23:21:45.969Z,13.80
2019-06-20T23:26:57.539Z,13.80
2019-06-20T23:32:02.177Z,13.90
2019-06-20T23:37:13.028Z,13.90
2019-06-20T23:42:18.237Z,13.70
2019-06-20T23:47:25.357Z,13.50
2019-06-20T23:52:31.752Z,13.40
2019-06-20T23:57:33.075Z,13.30
